createdAt,value
2022-12-31T00:01:13.875Z,98730.38
2022-12-31T00:03:42.365Z,98725.16
2022-12-31T00:06:16.596Z,98712.41
2022-12-31T00:08:44.433Z,98704.75
2022-12-31T00:11:13.102Z,98713.09
2022-12-31T00:13:41.045Z,98709.06
2022-12-31T00:16:12.476Z,98714.09
2022-12-31T00:18:40.495Z,98719.75
2022-12-31T00:21:09.155Z,98718.66
2022-12-31T00:23:38.317Z,98719.13
2022-12-31T00:26:07.884Z,98724.97
2022-12-31T00:28:37.653Z,98731.94
2022-12-31T00:31:09.837Z,98740.19
2022-12-31T00:33:37.683Z,98726.09
2022-12-31T00:36:11.481Z,98721.41
2022-12-31T00:38:41.289Z,98716.13
2022-12-31T00:41:08.964Z,98722.63
2022-12-31T00:43:36.819Z,98724.22
2022-12-31T00:46:05.804Z,98727.88
2022-12-31T00:48:34.244Z,98719.94
2022-12-31T00:51:02.696Z,98709.00
2022-12-31T00:53:30.489Z,98707.88
2022-12-31T00:56:06.094Z,98708.38
2022-12-31T00:58:34.225Z,98704.34
2022-12-31T01:01:09.575Z,98703.09
2022-12-31T01:03:37.490Z,98696.78
2022-12-31T01:06:05.338Z,98686.66
2022-12-31T01:08:32.859Z,98685.19
2022-12-31T01:11:22.017Z,98676.84
2022-12-31T01:13:53.897Z,98672.91
2022-12-31T01:16:23.515Z,98663.81
2022-12-31T01:18:51.919Z,98662.09
2022-12-31T01:21:20.590Z,98652.31
2022-12-31T01:23:48.109Z,98657.63
2022-12-31T01:26:19.111Z,98662.03
2022-12-31T01:28:47.199Z,98652.06
2022-12-31T01:31:17.180Z,98656.56
2022-12-31T01:33:44.981Z,98654.41
2022-12-31T01:36:14.187Z,98647.34
2022-12-31T01:38:42.217Z,98649.91
2022-12-31T01:41:12.959Z,98657.47
2022-12-31T01:43:48.345Z,98653.19
2022-12-31T01:46:24.522Z,98653.19
2022-12-31T01:48:57.156Z,98645.81
2022-12-31T01:51:28.211Z,98644.66
2022-12-31T01:53:56.263Z,98639.50
2022-12-31T01:56:24.826Z,98643.31
2022-12-31T01:58:56.774Z,98636.69
2022-12-31T02:01:27.872Z,98630.38
2022-12-31T02:03:56.682Z,98629.38
2022-12-31T02:06:29.870Z,98624.28
2022-12-31T02:08:58.953Z,98616.28
2022-12-31T02:11:29.107Z,98633.50
2022-12-31T02:14:01.204Z,98635.94
2022-12-31T02:16:35.319Z,98632.06
2022-12-31T02:19:18.334Z,98648.63
2022-12-31T02:21:53.492Z,98651.50
2022-12-31T02:24:35.800Z,98658.31
2022-12-31T02:27:09.775Z,98645.34
2022-12-31T02:30:08.415Z,98648.41
2022-12-31T02:32:46.709Z,98637.50
2022-12-31T02:35:20.137Z,98623.88
2022-12-31T02:37:53.079Z,98638.28
2022-12-31T02:40:23.128Z,98634.25
2022-12-31T02:42:55.258Z,98630.75
2022-12-31T02:45:30.006Z,98632.94
2022-12-31T02:48:13.602Z,98622.75
2022-12-31T02:50:56.216Z,98616.19
2022-12-31T02:53:40.225Z,98631.13
2022-12-31T02:56:17.443Z,98639.41
2022-12-31T02:59:12.034Z,98633.59
2022-12-31T03:02:05.314Z,98634.44
2022-12-31T03:04:36.059Z,98636.38
2022-12-31T03:07:05.891Z,98662.97
2022-12-31T03:09:33.584Z,98643.53
2022-12-31T03:12:19.924Z,98659.94
2022-12-31T03:14:47.502Z,98666.75
2022-12-31T03:17:16.499Z,98655.09
2022-12-31T03:20:01.344Z,98666.00
2022-12-31T03:22:28.892Z,98663.13
2022-12-31T03:25:16.688Z,98654.09
2022-12-31T03:27:44.581Z,98656.19
2022-12-31T03:30:13.600Z,98653.03
2022-12-31T03:32:43.325Z,98645.25
2022-12-31T03:35:12.942Z,98663.84
2022-12-31T03:37:41.401Z,98662.13
2022-12-31T03:40:11.349Z,98673.38
2022-12-31T03:42:38.963Z,98665.88
2022-12-31T03:45:07.518Z,98669.22
2022-12-31T03:47:34.992Z,98667.91
2022-12-31T03:50:04.086Z,98664.41
2022-12-31T03:52:31.555Z,98662.81
2022-12-31T03:54:59.052Z,98669.75
2022-12-31T03:57:26.600Z,98674.84
2022-12-31T03:59:54.054Z,98667.22
2022-12-31T04:02:28.086Z,98676.69
2022-12-31T04:04:56.224Z,98668.19
2022-12-31T04:07:25.141Z,98668.78
2022-12-31T04:09:52.612Z,98675.84
2022-12-31T04:12:20.167Z,98689.72
2022-12-31T04:14:47.641Z,98673.41
2022-12-31T04:17:15.128Z,98668.66
2022-12-31T04:19:42.616Z,98688.97
2022-12-31T04:22:10.254Z,98671.59
2022-12-31T04:24:39.095Z,98669.75
2022-12-31T04:27:08.065Z,98656.88
2022-12-31T04:29:36.008Z,98659.94
2022-12-31T04:32:04.055Z,98673.66
2022-12-31T04:34:31.911Z,98667.19
2022-12-31T04:37:01.972Z,98669.28
2022-12-31T04:39:29.494Z,98675.72
2022-12-31T04:41:58.339Z,98664.19
2022-12-31T04:44:25.831Z,98664.66
2022-12-31T04:46:53.472Z,98676.81
2022-12-31T04:49:21.086Z,98668.78
2022-12-31T04:51:48.559Z,98683.00
2022-12-31T04:54:16.027Z,98681.34
2022-12-31T04:56:43.496Z,98683.25
2022-12-31T04:59:12.892Z,98685.81
2022-12-31T05:01:40.460Z,98668.16
2022-12-31T05:04:07.987Z,98688.00
2022-12-31T05:06:35.528Z,98725.59
2022-12-31T05:09:03.005Z,98700.31
2022-12-31T05:11:30.554Z,98689.47
2022-12-31T05:13:58.020Z,98699.81
2022-12-31T05:16:26.887Z,98697.00
2022-12-31T05:18:54.467Z,98697.50
2022-12-31T05:21:22.592Z,98682.38
2022-12-31T05:23:50.617Z,98686.28
2022-12-31T05:26:18.275Z,98681.91
2022-12-31T05:28:45.752Z,98676.31
2022-12-31T05:31:14.346Z,98674.47
2022-12-31T05:33:43.247Z,98687.63
2022-12-31T05:36:10.819Z,98703.19
2022-12-31T05:38:38.888Z,98698.56
2022-12-31T05:41:08.733Z,98700.88
2022-12-31T05:43:36.206Z,98695.25
2022-12-31T05:46:05.206Z,98696.97
2022-12-31T05:48:33.158Z,98712.19
2022-12-31T05:51:01.961Z,98714.00
2022-12-31T05:53:29.448Z,98720.34
2022-12-31T05:55:56.956Z,98717.66
2022-12-31T05:58:24.478Z,98704.50
2022-12-31T06:00:52.270Z,98705.38
2022-12-31T06:03:19.836Z,98723.75
2022-12-31T06:05:47.479Z,98716.19
2022-12-31T06:08:16.306Z,98703.16
2022-12-31T06:10:43.819Z,98746.88
2022-12-31T06:13:11.324Z,98729.13
2022-12-31T06:15:40.408Z,98758.34
2022-12-31T06:18:08.297Z,98737.50
2022-12-31T06:20:37.591Z,98750.06
2022-12-31T06:23:05.435Z,98750.75
2022-12-31T06:25:35.534Z,98739.22
2022-12-31T06:28:03.075Z,98744.19
2022-12-31T06:30:30.577Z,98771.22
2022-12-31T06:32:58.142Z,98769.78
2022-12-31T06:35:25.656Z,98762.72
2022-12-31T06:37:53.374Z,98785.38
2022-12-31T06:40:20.859Z,98795.44
2022-12-31T06:42:53.399Z,98808.00
2022-12-31T06:45:25.326Z,98781.91
2022-12-31T06:47:52.792Z,98796.78
2022-12-31T06:50:20.327Z,98795.31
2022-12-31T06:52:47.761Z,98790.84
2022-12-31T06:55:16.416Z,98806.31
2022-12-31T06:57:44.486Z,98803.63
2022-12-31T07:00:15.004Z,98828.13
2022-12-31T07:03:10.171Z,98806.78
2022-12-31T07:05:46.893Z,98812.88
2022-12-31T07:08:28.057Z,98811.63
2022-12-31T07:11:01.585Z,98824.44
2022-12-31T07:14:05.505Z,98808.38
2022-12-31T07:16:48.105Z,98826.28
2022-12-31T07:19:28.023Z,98814.09
2022-12-31T07:21:59.338Z,98812.28
2022-12-31T07:24:27.644Z,98803.63
2022-12-31T07:27:13.710Z,98833.31
2022-12-31T07:29:57.550Z,98833.31
2022-12-31T07:32:42.573Z,98822.22
2022-12-31T07:35:18.398Z,98816.75
2022-12-31T07:37:52.537Z,98821.88
2022-12-31T07:40:30.031Z,98825.88
2022-12-31T07:43:08.529Z,98844.53
2022-12-31T07:45:43.447Z,98826.75
2022-12-31T07:48:23.389Z,98822.47
2022-12-31T07:50:51.758Z,98829.44
2022-12-31T07:53:19.757Z,98844.78
2022-12-31T07:55:47.688Z,98843.03
2022-12-31T07:58:23.046Z,98853.66
2022-12-31T08:00:52.564Z,98845.25
2022-12-31T08:03:36.023Z,98854.66
2022-12-31T08:06:12.715Z,98854.78
2022-12-31T08:08:50.585Z,98875.97
2022-12-31T08:11:26.600Z,98855.00
2022-12-31T08:13:56.997Z,98844.25
2022-12-31T08:16:25.006Z,98872.66
2022-12-31T08:18:54.495Z,98881.31
2022-12-31T08:21:34.820Z,98866.81
2022-12-31T08:24:13.507Z,98883.63
2022-12-31T08:26:53.032Z,98869.34
2022-12-31T08:29:34.644Z,98906.03
2022-12-31T08:32:12.962Z,98873.63
2022-12-31T08:34:53.580Z,98871.81
2022-12-31T08:37:29.771Z,98895.56
2022-12-31T08:40:13.866Z,98903.22
2022-12-31T08:42:53.637Z,98899.34
2022-12-31T08:45:31.664Z,98882.25
2022-12-31T08:48:04.200Z,98913.72
2022-12-31T08:50:33.814Z,98904.72
2022-12-31T08:53:02.063Z,98906.28
2022-12-31T08:55:30.323Z,98885.66
2022-12-31T08:58:11.133Z,98905.16
2022-12-31T09:00:39.724Z,98907.34
2022-12-31T09:03:27.023Z,98915.13
2022-12-31T09:06:03.645Z,98906.13
2022-12-31T09:08:39.188Z,98906.41
2022-12-31T09:11:17.686Z,98910.16
2022-12-31T09:14:10.780Z,98903.69
2022-12-31T09:16:45.612Z,98916.97
2022-12-31T09:19:13.103Z,98908.97
2022-12-31T09:21:44.273Z,98903.94
2022-12-31T09:24:13.479Z,98900.03
2022-12-31T09:26:51.905Z,98906.47
2022-12-31T09:29:32.730Z,98938.06
2022-12-31T09:32:09.682Z,98949.63
2022-12-31T09:34:45.904Z,98974.28
2022-12-31T09:37:17.323Z,98970.38
2022-12-31T09:39:46.978Z,98985.13
2022-12-31T09:42:48.661Z,98976.09
2022-12-31T09:45:54.937Z,98993.41
2022-12-31T09:48:34.684Z,98979.88
2022-12-31T09:51:20.303Z,98993.78
2022-12-31T09:54:29.778Z,98985.50
2022-12-31T09:57:08.739Z,99012.44
2022-12-31T09:59:44.088Z,98995.84
2022-12-31T10:02:24.662Z,99001.81
2022-12-31T10:05:13.833Z,99003.41
2022-12-31T10:07:53.529Z,99017.78
2022-12-31T10:10:25.421Z,99006.94
2022-12-31T10:13:10.149Z,99034.63
2022-12-31T10:16:00.018Z,99032.78
2022-12-31T10:18:43.978Z,99000.22
2022-12-31T10:21:27.981Z,99017.91
2022-12-31T10:24:35.200Z,99024.63
2022-12-31T10:27:37.301Z,99024.25
2022-12-31T10:30:16.114Z,99021.19
2022-12-31T10:32:46.227Z,99009.97
2022-12-31T10:35:24.503Z,99022.16
2022-12-31T10:38:00.472Z,99045.13
2022-12-31T10:40:48.996Z,99067.91
2022-12-31T10:43:49.238Z,99037.63
2022-12-31T10:46:43.840Z,99024.63
2022-12-31T10:49:48.830Z,99049.75
2022-12-31T10:52:47.931Z,99077.06
2022-12-31T10:55:37.329Z,99055.34
2022-12-31T10:58:30.433Z,99044.97
2022-12-31T11:01:08.438Z,99056.34
2022-12-31T11:04:11.508Z,99043.13
2022-12-31T11:07:04.350Z,99027.16
2022-12-31T11:10:09.535Z,99024.63
2022-12-31T11:12:57.491Z,99007.38
2022-12-31T11:15:50.425Z,99009.59
2022-12-31T11:18:31.813Z,99028.16
2022-12-31T11:21:14.574Z,99005.66
2022-12-31T11:23:53.446Z,99005.16
2022-12-31T11:26:34.481Z,99015.06
2022-12-31T11:29:16.899Z,99011.91
2022-12-31T11:32:14.636Z,99022.50
2022-12-31T11:35:18.917Z,99029.91
2022-12-31T11:37:48.638Z,99029.13
2022-12-31T11:40:33.052Z,99047.78
2022-12-31T11:43:04.856Z,99023.97
2022-12-31T11:45:52.697Z,99041.66
2022-12-31T11:48:30.950Z,99029.13
2022-12-31T11:51:14.486Z,99025.56
2022-12-31T11:54:04.880Z,99030.59
2022-12-31T11:56:36.344Z,99046.84
2022-12-31T11:59:15.732Z,99018.88
2022-12-31T12:01:54.507Z,99014.03
2022-12-31T12:04:22.016Z,99011.44
2022-12-31T12:06:51.467Z,99033.88
2022-12-31T12:09:26.904Z,99035.97
2022-12-31T12:12:00.125Z,99031.44
2022-12-31T12:14:33.454Z,99031.66
2022-12-31T12:17:05.253Z,99044.97
2022-12-31T12:19:34.683Z,99045.84
2022-12-31T12:22:12.771Z,99042.91
2022-12-31T12:24:40.519Z,99048.16
2022-12-31T12:27:21.920Z,99052.31
2022-12-31T12:29:49.615Z,99057.94
2022-12-31T12:32:19.993Z,99035.34
2022-12-31T12:34:50.115Z,99059.03
2022-12-31T12:37:29.080Z,99048.78
2022-12-31T12:39:58.526Z,99046.94
2022-12-31T12:42:26.257Z,99057.53
2022-12-31T12:45:05.459Z,99044.25
2022-12-31T12:47:34.165Z,99050.25
2022-12-31T12:50:02.032Z,99046.59
2022-12-31T12:52:52.757Z,99045.97
2022-12-31T12:55:28.069Z,99062.59
2022-12-31T12:58:05.332Z,99049.53
2022-12-31T13:00:38.634Z,99046.09
2022-12-31T13:03:35.819Z,99046.97
2022-12-31T13:06:18.644Z,99059.03
2022-12-31T13:09:02.201Z,99067.06
2022-12-31T13:11:37.864Z,99059.50
2022-12-31T13:14:16.410Z,99063.44
2022-12-31T13:16:48.519Z,99067.91
2022-12-31T13:19:23.147Z,99077.59
2022-12-31T13:21:58.815Z,99073.81
2022-12-31T13:24:43.981Z,99082.47
2022-12-31T13:27:20.023Z,99101.81
2022-12-31T13:29:49.340Z,99067.69
2022-12-31T13:32:20.969Z,99066.59
2022-12-31T13:34:52.804Z,99076.00
2022-12-31T13:37:28.134Z,99072.44
2022-12-31T13:40:03.498Z,99072.44
2022-12-31T13:42:40.950Z,99075.13
2022-12-31T13:45:14.536Z,99067.06
2022-12-31T13:47:46.904Z,99075.13
2022-12-31T13:50:20.132Z,99061.97
2022-12-31T13:52:52.298Z,99055.25
2022-12-31T13:55:25.219Z,99073.81
2022-12-31T13:57:57.596Z,99039.03
2022-12-31T14:00:27.373Z,99082.81
2022-12-31T14:03:11.302Z,99056.22
2022-12-31T14:05:48.275Z,99073.78
2022-12-31T14:08:16.719Z,99059.41
2022-12-31T14:10:58.603Z,99063.91
2022-12-31T14:13:38.555Z,99065.25
2022-12-31T14:16:16.120Z,99054.38
2022-12-31T14:18:53.680Z,99063.28
2022-12-31T14:21:25.069Z,99071.00
2022-12-31T14:24:00.389Z,99075.59
2022-12-31T14:26:34.043Z,99083.03
2022-12-31T14:29:15.438Z,99076.09
2022-12-31T14:32:02.344Z,99073.91
2022-12-31T14:34:36.408Z,99083.31
2022-12-31T14:37:12.844Z,99080.75
2022-12-31T14:39:49.345Z,99090.72
2022-12-31T14:42:29.632Z,99096.59
2022-12-31T14:45:08.400Z,99091.56
2022-12-31T14:47:51.394Z,99098.03
2022-12-31T14:50:23.661Z,99088.78
2022-12-31T14:52:53.901Z,99095.47
2022-12-31T14:55:29.827Z,99089.50
2022-12-31T15:00:56.573Z,99110.66
2022-12-31T15:03:27.453Z,99100.66
2022-12-31T15:06:00.163Z,99089.22
2022-12-31T15:08:41.807Z,99096.41
2022-12-31T15:11:24.155Z,99099.31
2022-12-31T15:14:22.813Z,99101.75
2022-12-31T15:16:57.606Z,99090.41
2022-12-31T15:19:47.269Z,99088.59
2022-12-31T15:22:28.730Z,99095.59
2022-12-31T15:24:56.586Z,99090.59
2022-12-31T15:27:34.531Z,99080.09
2022-12-31T15:30:04.800Z,99075.78
2022-12-31T15:32:36.917Z,99111.75
2022-12-31T15:35:25.491Z,99115.06
2022-12-31T15:38:00.069Z,99118.09
2022-12-31T15:40:29.028Z,99109.34
2022-12-31T15:43:02.176Z,99116.03
2022-12-31T15:45:34.820Z,99101.03
2022-12-31T15:48:07.875Z,99099.91
2022-12-31T15:50:37.920Z,99111.75
2022-12-31T15:53:07.538Z,99099.59
2022-12-31T15:55:43.252Z,99103.72
2022-12-31T15:58:13.222Z,99094.22
2022-12-31T16:00:57.320Z,99090.94
2022-12-31T16:03:27.890Z,99093.88
2022-12-31T16:06:00.927Z,99103.38
2022-12-31T16:08:32.021Z,99100.69
2022-12-31T16:11:00.264Z,99114.59
2022-12-31T16:13:30.423Z,99118.97
2022-12-31T16:16:03.741Z,99104.47
2022-12-31T16:18:38.869Z,99104.84
2022-12-31T16:21:06.983Z,99098.50
2022-12-31T16:23:40.380Z,99096.94
2022-12-31T16:26:11.964Z,99105.44
2022-12-31T16:28:39.502Z,99104.22
2022-12-31T16:31:17.564Z,99101.47
2022-12-31T16:33:45.391Z,99097.75
2022-12-31T16:36:20.820Z,99106.91
2022-12-31T16:38:49.139Z,99093.00
2022-12-31T16:41:19.543Z,99097.03
2022-12-31T16:43:48.329Z,99096.06
2022-12-31T16:46:21.165Z,99099.25
2022-12-31T16:48:51.457Z,99102.88
2022-12-31T16:51:22.010Z,99105.56
2022-12-31T16:53:50.378Z,99091.28
2022-12-31T16:56:25.085Z,99100.69
2022-12-31T16:58:59.487Z,99087.50
2022-12-31T17:01:31.437Z,99081.28
2022-12-31T17:04:01.573Z,99084.69
2022-12-31T17:06:33.213Z,99089.44
2022-12-31T17:09:14.384Z,99090.41
2022-12-31T17:11:50.320Z,99099.56
2022-12-31T17:14:19.913Z,99109.69
2022-12-31T17:17:03.502Z,99087.63
2022-12-31T17:19:41.265Z,99096.03
2022-12-31T17:22:14.130Z,99095.78
2022-12-31T17:24:41.685Z,99099.22
2022-12-31T17:27:10.400Z,99091.84
2022-12-31T17:29:38.292Z,99094.28
2022-12-31T17:32:26.400Z,99096.63
2022-12-31T17:34:53.911Z,99091.38
2022-12-31T17:37:26.135Z,99070.16
2022-12-31T17:39:55.103Z,99073.47
2022-12-31T17:42:57.163Z,99085.56
2022-12-31T17:48:46.875Z,99088.91
2022-12-31T17:51:14.587Z,99074.53
2022-12-31T17:57:52.999Z,99066.03
2022-12-31T18:00:22.680Z,99058.56
2022-12-31T18:02:50.441Z,99066.03
2022-12-31T18:05:26.495Z,99060.31
2022-12-31T18:08:07.267Z,99060.03
2022-12-31T18:10:45.594Z,99062.72
2022-12-31T18:13:20.726Z,99066.28
2022-12-31T18:15:52.974Z,99068.72
2022-12-31T18:18:26.165Z,99061.97
2022-12-31T18:21:01.254Z,99077.22
2022-12-31T18:23:34.344Z,99069.50
2022-12-31T18:26:04.996Z,99063.06
2022-12-31T18:28:38.104Z,99058.72
2022-12-31T18:31:05.748Z,99062.38
2022-12-31T18:33:33.466Z,99060.38
2022-12-31T18:36:10.545Z,99061.38
2022-12-31T18:38:39.213Z,99064.41
2022-12-31T18:41:07.942Z,99046.50
2022-12-31T18:43:35.462Z,99050.75
2022-12-31T18:46:11.679Z,99047.59
2022-12-31T18:48:41.259Z,99045.31
2022-12-31T18:51:13.303Z,99052.13
2022-12-31T18:53:40.778Z,99038.72
2022-12-31T18:56:13.111Z,99040.38
2022-12-31T18:58:40.706Z,99052.59
2022-12-31T19:01:25.191Z,99029.81
2022-12-31T19:03:52.919Z,99041.28
2022-12-31T19:06:22.687Z,99044.22
2022-12-31T19:08:50.216Z,99044.31
2022-12-31T19:11:17.866Z,99038.38
2022-12-31T19:13:45.600Z,99056.75
2022-12-31T19:16:13.861Z,99058.34
2022-12-31T19:18:42.198Z,99058.78
2022-12-31T19:21:16.418Z,99052.75
2022-12-31T19:23:45.732Z,99050.66
2022-12-31T19:26:16.357Z,99053.78
2022-12-31T19:28:44.478Z,99069.50
2022-12-31T19:31:12.407Z,99057.00
2022-12-31T19:33:39.906Z,99065.03
2022-12-31T19:36:14.472Z,99076.59
2022-12-31T19:38:41.985Z,99070.63
2022-12-31T19:41:15.887Z,99071.63
2022-12-31T19:43:43.762Z,99070.06
2022-12-31T19:46:13.404Z,99080.16
2022-12-31T19:48:40.974Z,99073.22
2022-12-31T19:51:10.220Z,99087.31
2022-12-31T19:53:37.779Z,99077.22
2022-12-31T19:56:06.092Z,99086.38
2022-12-31T19:58:34.871Z,99085.16
2022-12-31T20:01:03.437Z,99085.13
2022-12-31T20:03:32.350Z,99101.81
2022-12-31T20:06:05.459Z,99099.91
2022-12-31T20:08:33.382Z,99109.41
2022-12-31T20:11:08.574Z,99111.59
2022-12-31T20:13:37.292Z,99104.66
2022-12-31T20:16:07.689Z,99118.19
2022-12-31T20:18:37.434Z,99131.25
2022-12-31T20:21:05.347Z,99122.34
2022-12-31T20:23:34.189Z,99124.28
2022-12-31T20:26:02.507Z,99129.03
2022-12-31T20:28:30.651Z,99140.22
2022-12-31T20:30:59.526Z,99138.88
2022-12-31T20:33:27.029Z,99134.03
2022-12-31T20:35:54.470Z,99137.16
2022-12-31T20:38:21.991Z,99144.03
2022-12-31T20:40:49.715Z,99143.53
2022-12-31T20:43:17.205Z,99150.47
2022-12-31T20:45:44.776Z,99153.63
2022-12-31T20:48:13.640Z,99162.78
2022-12-31T20:50:41.093Z,99164.25
2022-12-31T20:53:08.562Z,99166.94
2022-12-31T20:55:38.653Z,99159.84
2022-12-31T20:58:06.268Z,99168.88
2022-12-31T21:00:33.776Z,99177.16
2022-12-31T21:03:14.407Z,99168.88
2022-12-31T21:05:51.706Z,99190.72
2022-12-31T21:08:20.591Z,99166.34
2022-12-31T21:10:50.807Z,99162.81
2022-12-31T21:13:21.508Z,99171.84
2022-12-31T21:15:49.342Z,99181.75
2022-12-31T21:18:17.430Z,99196.00
2022-12-31T21:20:47.073Z,99197.50
2022-12-31T21:23:16.052Z,99187.81
2022-12-31T21:25:44.353Z,99192.00
2022-12-31T21:28:12.711Z,99190.16
2022-12-31T21:30:40.881Z,99202.94
2022-12-31T21:33:09.060Z,99208.34
2022-12-31T21:35:48.681Z,99209.72
2022-12-31T21:38:22.935Z,99202.13
2022-12-31T21:40:50.494Z,99205.56
2022-12-31T21:43:18.410Z,99197.03
2022-12-31T21:45:45.892Z,99207.50
2022-12-31T21:48:21.297Z,99209.81
2022-12-31T21:50:50.624Z,99193.72
2022-12-31T21:53:23.721Z,99210.31
2022-12-31T21:56:08.291Z,99209.91
2022-12-31T21:58:36.543Z,99218.22
2022-12-31T22:01:22.587Z,99204.31
2022-12-31T22:03:50.381Z,99218.56
2022-12-31T22:06:21.475Z,99208.31
2022-12-31T22:08:51.368Z,99208.59
2022-12-31T22:11:22.068Z,99209.69
2022-12-31T22:13:49.985Z,99205.75
2022-12-31T22:16:19.955Z,99221.97
2022-12-31T22:18:48.090Z,99214.56
2022-12-31T22:21:19.178Z,99222.22
2022-12-31T22:23:48.253Z,99214.31
2022-12-31T22:26:17.732Z,99210.16
2022-12-31T22:28:47.513Z,99203.91
2022-12-31T22:31:16.740Z,99218.56
2022-12-31T22:33:44.847Z,99233.56
2022-12-31T22:36:14.475Z,99228.28
2022-12-31T22:38:41.968Z,99243.63
2022-12-31T22:41:11.457Z,99240.63
2022-12-31T22:43:41.289Z,99236.84
2022-12-31T22:46:12.803Z,99238.44
2022-12-31T22:48:41.487Z,99233.53
2022-12-31T22:51:10.000Z,99242.09
2022-12-31T22:53:38.405Z,99242.09
2022-12-31T22:56:06.490Z,99249.41
2022-12-31T22:58:34.621Z,99246.72
2022-12-31T23:01:05.567Z,99239.31
2022-12-31T23:03:34.591Z,99258.16
2022-12-31T23:06:02.124Z,99265.25
2022-12-31T23:08:29.761Z,99253.72
2022-12-31T23:11:01.557Z,99260.06
2022-12-31T23:13:51.090Z,99258.34
2022-12-31T23:16:37.015Z,99256.25
2022-12-31T23:19:23.961Z,99249.66
2022-12-31T23:22:09.289Z,99242.25
2022-12-31T23:24:37.199Z,99244.09
2022-12-31T23:27:04.873Z,99263.59
2022-12-31T23:29:32.539Z,99243.13
2022-12-31T23:32:00.612Z,99251.38
2022-12-31T23:34:29.413Z,99239.69
2022-12-31T23:36:56.925Z,99236.78
2022-12-31T23:39:24.439Z,99239.72
2022-12-31T23:41:51.879Z,99236.03
2022-12-31T23:44:19.634Z,99235.09
2022-12-31T23:46:47.176Z,99231.91
2022-12-31T23:49:14.706Z,99239.94
2022-12-31T23:51:43.649Z,99246.75
2022-12-31T23:54:12.663Z,99245.50
2022-12-31T23:56:40.178Z,99248.31
2022-12-31T23:59:07.772Z,99237.94
